Terminal Aerodrome Forecast
Issued by NWS

Home | Current Version | Previous Version | Text Only | Print | Product List | Glossary On
Versions: 1 2 3 4 5 6 7 8 9 10 11 12 13 14 15 16 17 18 19 20 21
658
FTUS43 KAPX 101731
TAFTVC
TAF
KTVC 101731Z 1018/1118 35015G23KT 6SM -SHSN SCT025 OVC040
      TEMPO 1018/1022 3SM -SHSN BLSN OVC025
     FM102200 33011G19KT 4SM -SHSN BLSN SCT025 OVC035
     FM110500 32008KT 4SM -SHSN OVC030=

USA.gov is the U.S. government's official web portal to all federal, state and local government web resources and services.